Time;durP1;ratioP1;P1;durP2;ratioP2;P2;SDS_P1;SDS_P2;PMS_P1;PMS_P2;Temp;Humidity;BMP_temperature;BMP_pressure;BME280_temperature;BME280_humidity;BME280_pressure;Samples;Min_cycle;Max_cycle;Signal;HPM_P1;HPM_P2
2022/03/26 00:00:02;;;;;;;1.43;1.20;;;8.50;88.00;;;;;;5050285;28;20466;-74
2022/03/26 00:02:29;;;;;;;1.50;1.20;;;8.40;87.50;;;;;;5048168;28;20482;-74
2022/03/26 00:04:57;;;;;;;1.63;1.53;;;8.40;87.80;;;;;;5049308;28;20834;-74
2022/03/26 00:07:23;;;;;;;1.50;1.20;;;8.40;87.30;;;;;;5048656;28;20734;-73
2022/03/26 00:09:50;;;;;;;2.57;2.37;;;8.40;88.30;;;;;;5047941;28;20477;-73
2022/03/26 00:12:17;;;;;;;1.47;1.20;;;8.30;88.00;;;;;;5041715;28;20470;-74
2022/03/26 00:14:44;;;;;;;1.73;1.60;;;8.30;88.50;;;;;;5048962;28;20473;-75
2022/03/26 00:17:11;;;;;;;1.50;1.20;;;8.30;88.70;;;;;;5048240;28;20486;-74
2022/03/26 00:19:37;;;;;;;1.50;1.20;;;8.20;88.70;;;;;;5051962;28;20470;-74
2022/03/26 00:22:06;;;;;;;1.50;1.20;;;8.20;88.50;;;;;;5046376;28;20487;-75
2022/03/26 00:24:33;;;;;;;1.50;1.30;;;8.20;90.10;;;;;;5051840;28;20466;-75
2022/03/26 00:26:59;;;;;;;1.50;1.20;;;8.20;90.10;;;;;;5044294;28;20469;-75
2022/03/26 00:29:26;;;;;;;1.47;1.20;;;8.20;88.80;;;;;;5050906;28;20989;-75
2022/03/26 00:31:53;;;;;;;1.50;1.23;;;8.20;90.90;;;;;;5046487;28;20465;-75
2022/03/26 00:34:19;;;;;;;1.50;1.23;;;8.10;90.40;;;;;;5048058;28;20871;-74
2022/03/26 00:36:46;;;;;;;1.43;1.20;;;8.10;90.50;;;;;;5045961;28;20478;-73
2022/03/26 00:39:14;;;;;;;1.50;1.20;;;8.10;90.60;;;;;;5050871;28;20509;-75
2022/03/26 00:41:41;;;;;;;2.80;2.60;;;8.00;91.30;;;;;;5043045;28;20462;-73
2022/03/26 00:44:08;;;;;;;1.50;1.30;;;8.00;90.70;;;;;;5050702;28;20486;-73
2022/03/26 00:46:35;;;;;;;1.50;1.27;;;8.00;91.20;;;;;;5049282;28;20473;-74
2022/03/26 00:49:02;;;;;;;1.50;1.20;;;8.00;91.20;;;;;;5048215;28;20454;-73
2022/03/26 00:51:28;;;;;;;1.87;1.77;;;8.00;91.00;;;;;;5043438;28;20484;-74
2022/03/26 00:53:55;;;;;;;1.43;1.20;;;7.90;90.90;;;;;;5057498;28;20497;-74
2022/03/26 00:56:23;;;;;;;1.50;1.20;;;7.90;91.60;;;;;;5045871;28;20485;-74
2022/03/26 00:58:50;;;;;;;1.50;1.20;;;7.90;91.10;;;;;;5054926;28;20979;-75
2022/03/26 01:01:17;;;;;;;1.50;1.40;;;7.90;90.80;;;;;;5047435;28;21025;-74
2022/03/26 01:03:43;;;;;;;1.50;1.20;;;7.80;91.40;;;;;;5053521;28;20485;-74
2022/03/26 01:06:11;;;;;;;1.50;1.30;;;7.80;92.00;;;;;;5047976;28;20966;-73
2022/03/26 01:08:38;;;;;;;1.50;1.30;;;7.80;93.00;;;;;;5049289;28;20489;-74
2022/03/26 01:11:04;;;;;;;1.50;1.23;;;7.80;92.90;;;;;;5048640;28;20466;-73
2022/03/26 01:13:34;;;;;;;1.50;1.30;;;7.80;91.80;;;;;;5052807;28;20482;-74
2022/03/26 01:16:01;;;;;;;1.50;1.20;;;7.70;91.90;;;;;;5048971;28;20489;-73
2022/03/26 01:18:29;;;;;;;1.50;1.20;;;7.70;91.60;;;;;;5051300;28;20482;-74
2022/03/26 01:20:55;;;;;;;1.50;1.30;;;7.70;91.90;;;;;;5047738;28;20970;-74
2022/03/26 01:23:22;;;;;;;1.50;1.40;;;7.70;91.00;;;;;;5048835;28;20492;-74
2022/03/26 01:25:49;;;;;;;1.50;1.20;;;7.60;92.50;;;;;;5048210;28;20488;-73
2022/03/26 01:28:16;;;;;;;1.43;1.20;;;7.60;93.50;;;;;;5044770;28;20740;-74
2022/03/26 01:30:45;;;;;;;1.50;1.20;;;7.60;92.70;;;;;;5048402;28;20462;-73
2022/03/26 01:33:13;;;;;;;2.47;2.30;;;7.60;93.20;;;;;;5048341;28;20486;-74
2022/03/26 01:35:40;;;;;;;1.50;1.30;;;7.60;92.80;;;;;;5049345;28;20494;-75
2022/03/26 01:38:07;;;;;;;1.50;1.33;;;7.50;92.20;;;;;;5048432;28;20478;-75
2022/03/26 01:40:34;;;;;;;1.50;1.20;;;7.50;93.60;;;;;;5048730;28;20493;-75
2022/03/26 01:43:01;;;;;;;1.47;1.20;;;7.50;93.00;;;;;;5048345;28;20486;-74
2022/03/26 01:45:29;;;;;;;1.50;1.30;;;7.50;92.80;;;;;;5048550;28;20466;-74
2022/03/26 01:47:58;;;;;;;1.50;1.40;;;7.50;93.70;;;;;;5048299;28;20462;-74
2022/03/26 01:50:25;;;;;;;1.50;1.30;;;7.40;93.40;;;;;;5052185;28;20461;-75
2022/03/26 01:52:52;;;;;;;1.50;1.30;;;7.40;92.80;;;;;;5046945;28;21017;-74
2022/03/26 01:55:19;;;;;;;1.50;1.20;;;7.40;93.20;;;;;;5043366;28;20459;-74
2022/03/26 01:57:46;;;;;;;1.50;1.30;;;7.30;92.70;;;;;;5048070;28;20482;-74
2022/03/26 02:00:15;;;;;;;1.50;1.20;;;7.30;93.90;;;;;;5047318;28;20469;-74
2022/03/26 02:02:43;;;;;;;1.50;1.30;;;7.30;92.40;;;;;;5049177;28;20482;-74
2022/03/26 02:05:12;;;;;;;1.50;1.30;;;7.20;93.20;;;;;;5048091;28;20458;-74
2022/03/26 02:07:39;;;;;;;1.50;1.30;;;7.20;94.20;;;;;;5051988;28;20485;-74
2022/03/26 02:10:09;;;;;;;1.50;1.30;;;7.20;94.10;;;;;;5052833;28;21021;-74
2022/03/26 02:12:36;;;;;;;1.50;1.30;;;7.10;93.80;;;;;;5055158;28;20477;-74
2022/03/26 02:15:03;;;;;;;1.50;1.20;;;7.10;94.50;;;;;;5052785;28;20469;-74
2022/03/26 02:17:30;;;;;;;1.50;1.33;;;7.10;94.80;;;;;;5052655;28;20465;-74
2022/03/26 02:19:59;;;;;;;1.50;1.20;;;7.10;95.20;;;;;;5051791;28;20465;-74
2022/03/26 02:22:28;;;;;;;1.50;1.30;;;7.10;94.50;;;;;;5051510;28;20509;-73
2022/03/26 02:24:56;;;;;;;1.50;1.30;;;7.00;93.90;;;;;;5051272;28;20460;-75
2022/03/26 02:27:24;;;;;;;1.50;1.20;;;7.00;94.80;;;;;;5054650;28;20469;-74
2022/03/26 02:29:52;;;;;;;1.50;1.30;;;7.00;94.70;;;;;;5053592;28;20458;-74
2022/03/26 02:32:22;;;;;;;3.30;3.10;;;6.90;95.50;;;;;;5051464;28;20666;-73
2022/03/26 02:34:49;;;;;;;1.50;1.30;;;6.90;95.20;;;;;;5051667;28;20659;-75
2022/03/26 02:37:18;;;;;;;1.47;1.23;;;6.90;95.30;;;;;;5052352;28;20462;-72
2022/03/26 02:39:45;;;;;;;1.50;1.30;;;6.90;95.20;;;;;;5041576;28;20486;-75
2022/03/26 02:42:14;;;;;;;1.50;1.30;;;6.80;94.80;;;;;;5045480;28;20470;-75
2022/03/26 02:44:41;;;;;;;1.50;1.30;;;6.80;94.70;;;;;;5045956;28;20462;-73
2022/03/26 02:47:10;;;;;;;1.43;1.30;;;6.80;94.90;;;;;;5044540;28;20466;-75
2022/03/26 02:49:37;;;;;;;1.50;1.30;;;6.80;95.50;;;;;;5050181;28;20450;-75
2022/03/26 02:52:04;;;;;;;1.50;1.30;;;6.80;95.90;;;;;;5049587;28;20459;-75
2022/03/26 02:54:33;;;;;;;1.50;1.20;;;6.80;95.50;;;;;;5049967;28;20473;-73
2022/03/26 02:57:00;;;;;;;1.50;1.40;;;6.70;95.60;;;;;;5047267;28;20481;-74
2022/03/26 02:59:26;;;;;;;1.60;1.50;;;6.70;95.40;;;;;;5051978;28;20498;-75
2022/03/26 03:01:53;;;;;;;1.50;1.20;;;6.70;95.60;;;;;;5050864;28;20933;-74
2022/03/26 03:04:20;;;;;;;1.50;1.20;;;6.70;96.20;;;;;;5051384;28;20486;-74
2022/03/26 03:06:47;;;;;;;1.50;1.27;;;6.70;96.50;;;;;;5050810;28;20921;-74
2022/03/26 03:09:14;;;;;;;1.50;1.30;;;6.70;95.60;;;;;;5039329;28;20916;-76
2022/03/26 03:11:42;;;;;;;1.50;1.40;;;6.70;95.90;;;;;;5048254;28;20458;-74
2022/03/26 03:14:10;;;;;;;1.50;1.30;;;6.60;96.00;;;;;;5050475;28;20488;-75
2022/03/26 03:16:37;;;;;;;1.50;1.30;;;6.60;96.20;;;;;;5050618;28;20535;-75
2022/03/26 03:19:04;;;;;;;1.50;1.30;;;6.60;96.20;;;;;;5050516;28;20557;-75
2022/03/26 03:21:31;;;;;;;1.50;1.30;;;6.60;96.60;;;;;;5043013;28;20888;-75
2022/03/26 03:23:58;;;;;;;1.50;1.30;;;6.60;96.10;;;;;;5059376;28;20482;-74
2022/03/26 03:26:25;;;;;;;1.50;1.20;;;6.60;95.60;;;;;;5040140;28;20970;-74
2022/03/26 03:28:53;;;;;;;1.50;1.20;;;6.60;95.60;;;;;;5060048;28;20455;-75
2022/03/26 03:31:20;;;;;;;1.50;1.40;;;6.50;96.10;;;;;;5044592;28;20550;-74
2022/03/26 03:33:46;;;;;;;1.50;1.30;;;6.50;95.70;;;;;;5050210;28;20481;-74
2022/03/26 03:36:13;;;;;;;1.50;1.30;;;6.50;96.30;;;;;;5049216;28;20903;-75
2022/03/26 03:38:40;;;;;;;1.50;1.20;;;6.50;96.30;;;;;;5052142;28;20569;-74
2022/03/26 03:41:07;;;;;;;1.47;1.30;;;6.40;97.10;;;;;;5048179;28;20471;-75
2022/03/26 03:43:34;;;;;;;1.50;1.30;;;6.40;96.20;;;;;;5050628;28;20486;-75
2022/03/26 03:46:02;;;;;;;1.50;1.30;;;6.40;96.10;;;;;;5041536;28;20478;-75
2022/03/26 03:48:32;;;;;;;1.50;1.40;;;6.30;96.00;;;;;;5062801;28;20458;-73
2022/03/26 03:50:58;;;;;;;1.50;1.30;;;6.30;97.60;;;;;;5040940;28;20470;-74
2022/03/26 03:53:25;;;;;;;1.50;1.30;;;6.30;97.40;;;;;;5062337;28;21012;-75
2022/03/26 03:55:52;;;;;;;1.50;1.30;;;6.30;96.70;;;;;;5049718;28;20459;-73
2022/03/26 03:58:19;;;;;;;1.50;1.23;;;6.30;97.20;;;;;;5043212;28;20462;-74
2022/03/26 04:00:45;;;;;;;1.50;1.30;;;6.30;97.50;;;;;;5043907;28;20473;-75
2022/03/26 04:03:16;;;;;;;1.50;1.30;;;6.20;97.50;;;;;;5048767;28;20886;-75
2022/03/26 04:05:43;;;;;;;2.87;2.67;;;6.20;98.10;;;;;;5049850;28;20473;-74
2022/03/26 04:08:10;;;;;;;1.50;1.20;;;6.20;97.40;;;;;;5049580;28;20981;-74
2022/03/26 04:10:37;;;;;;;1.50;1.30;;;6.20;97.10;;;;;;5049356;28;20462;-73
2022/03/26 04:13:03;;;;;;;1.50;1.30;;;6.10;98.20;;;;;;5052233;28;20487;-73
2022/03/26 04:15:30;;;;;;;1.50;1.30;;;6.20;98.20;;;;;;5049759;28;20466;-76
2022/03/26 04:17:57;;;;;;;1.50;1.30;;;6.10;98.20;;;;;;5043053;28;20489;-75
2022/03/26 04:20:26;;;;;;;1.50;1.20;;;6.10;98.20;;;;;;5050079;28;20486;-75
2022/03/26 04:22:53;;;;;;;1.50;1.30;;;6.10;97.70;;;;;;5048594;28;20486;-73
2022/03/26 04:25:20;;;;;;;1.50;1.20;;;6.10;98.20;;;;;;5049898;28;20485;-73
2022/03/26 04:27:49;;;;;;;1.50;1.30;;;6.10;97.50;;;;;;5053739;28;20513;-73
2022/03/26 04:30:16;;;;;;;1.50;1.30;;;6.10;97.40;;;;;;5049337;28;20463;-75
2022/03/26 04:32:43;;;;;;;1.50;1.30;;;6.10;97.00;;;;;;5052198;28;20489;-74
2022/03/26 04:35:10;;;;;;;1.50;1.30;;;6.00;97.10;;;;;;5049767;28;20462;-75
2022/03/26 04:37:38;;;;;;;1.50;1.30;;;6.00;97.30;;;;;;5044879;28;20463;-73
2022/03/26 04:40:08;;;;;;;1.50;1.30;;;6.00;97.20;;;;;;5039061;28;20489;-74
2022/03/26 04:42:35;;;;;;;1.50;1.30;;;5.90;97.70;;;;;;5048337;28;20482;-74
2022/03/26 04:45:01;;;;;;;1.50;1.30;;;5.90;98.10;;;;;;5049504;28;20474;-73
2022/03/26 04:47:31;;;;;;;1.50;1.40;;;5.90;98.20;;;;;;5051498;28;20462;-73
2022/03/26 04:49:58;;;;;;;1.50;1.30;;;5.80;98.20;;;;;;5045311;28;20498;-73
2022/03/26 04:52:25;;;;;;;1.50;1.30;;;5.80;98.20;;;;;;5046354;28;20490;-74
2022/03/26 04:54:53;;;;;;;1.57;1.47;;;5.80;98.00;;;;;;5045839;28;20458;-74
2022/03/26 04:57:19;;;;;;;1.50;1.30;;;5.80;97.50;;;;;;5047438;28;20511;-75
2022/03/26 04:59:46;;;;;;;1.50;1.30;;;5.80;97.40;;;;;;5051714;28;20493;-75
2022/03/26 05:02:13;;;;;;;1.50;1.30;;;5.70;98.10;;;;;;5040085;28;20843;-72
2022/03/26 05:04:40;;;;;;;1.50;1.23;;;5.70;98.20;;;;;;5045033;28;20466;-75
2022/03/26 05:09:47;;;;;;;1.50;1.30;;;5.70;98.20;;;;;;5041132;28;20450;-74
2022/03/26 05:12:17;;;;;;;1.50;1.30;;;5.70;98.20;;;;;;5071364;23;20970;-72
2022/03/26 05:14:43;;;;;;;1.50;1.30;;;5.70;98.20;;;;;;5009056;28;20571;-73
2022/03/26 05:17:11;;;;;;;1.50;1.30;;;5.60;98.20;;;;;;5009432;28;20968;-73
2022/03/26 05:19:37;;;;;;;1.50;1.40;;;5.60;98.20;;;;;;5009276;28;20488;-73
2022/03/26 05:22:05;;;;;;;1.50;1.40;;;5.60;97.80;;;;;;5021554;28;20475;-73
2022/03/26 05:24:32;;;;;;;1.50;1.30;;;5.60;98.20;;;;;;5015356;28;20870;-73
2022/03/26 05:26:59;;;;;;;1.60;1.37;;;5.60;98.20;;;;;;5017194;28;20478;-73
2022/03/26 05:29:27;;;;;;;1.50;1.30;;;5.50;98.20;;;;;;5019867;28;20464;-73
2022/03/26 05:31:54;;;;;;;1.50;1.30;;;5.50;98.20;;;;;;5010462;28;20464;-73
2022/03/26 05:34:21;;;;;;;1.50;1.30;;;5.60;98.20;;;;;;5013107;28;20480;-74
2022/03/26 05:36:48;;;;;;;1.50;1.30;;;5.60;98.20;;;;;;5011748;28;20501;-70
2022/03/26 05:39:15;;;;;;;1.50;1.30;;;5.60;98.20;;;;;;5007470;28;20488;-71
2022/03/26 05:41:42;;;;;;;1.50;1.30;;;5.60;98.20;;;;;;5009872;28;20474;-71
2022/03/26 05:44:09;;;;;;;1.50;1.20;;;5.60;98.20;;;;;;5026509;28;20488;-72
2022/03/26 05:46:38;;;;;;;1.50;1.30;;;5.60;98.20;;;;;;5007966;28;20464;-73
2022/03/26 05:49:05;;;;;;;1.50;1.30;;;5.60;98.20;;;;;;5014800;28;20543;-72
2022/03/26 05:51:32;;;;;;;1.57;1.30;;;5.60;98.20;;;;;;5009465;28;20489;-72
2022/03/26 05:53:59;;;;;;;1.50;1.30;;;5.60;98.20;;;;;;5028701;28;20512;-72
2022/03/26 05:56:26;;;;;;;1.50;1.30;;;5.60;98.20;;;;;;5008353;28;20800;-73
2022/03/26 05:58:53;;;;;;;1.50;1.30;;;5.60;98.20;;;;;;5029394;28;20475;-73
2022/03/26 06:01:21;;;;;;;1.50;1.30;;;5.60;98.20;;;;;;5007741;28;20482;-73
2022/03/26 06:03:50;;;;;;;1.50;1.30;;;5.70;98.20;;;;;;5008815;28;20518;-73
2022/03/26 06:06:17;;;;;;;1.50;1.30;;;5.70;98.20;;;;;;5008939;28;20475;-72
2022/03/26 06:08:44;;;;;;;2.80;2.60;;;5.70;98.20;;;;;;5008455;28;20519;-73
2022/03/26 06:11:11;;;;;;;1.50;1.30;;;5.70;98.20;;;;;;5007541;28;20554;-72
2022/03/26 06:13:39;;;;;;;1.50;1.30;;;5.80;98.20;;;;;;5008794;28;20606;-73
2022/03/26 06:16:06;;;;;;;1.50;1.40;;;5.80;98.20;;;;;;5010486;28;20468;-73
2022/03/26 06:18:33;;;;;;;1.50;1.20;;;5.90;98.20;;;;;;5012339;28;20475;-72
2022/03/26 06:21:01;;;;;;;1.50;1.30;;;6.00;98.20;;;;;;5007749;28;20808;-73
2022/03/26 06:23:28;;;;;;;1.50;1.30;;;6.20;98.20;;;;;;5011760;28;20493;-72
2022/03/26 06:25:55;;;;;;;1.90;1.70;;;6.30;98.20;;;;;;5008602;28;20468;-73
2022/03/26 06:28:22;;;;;;;1.50;1.30;;;6.40;98.20;;;;;;5012846;28;20535;-73
2022/03/26 06:30:51;;;;;;;1.50;1.30;;;6.60;98.20;;;;;;5006075;28;20500;-74
2022/03/26 06:33:18;;;;;;;1.50;1.20;;;6.80;98.20;;;;;;5002461;28;20488;-72
2022/03/26 06:35:46;;;;;;;1.50;1.40;;;7.00;98.20;;;;;;5006947;28;20506;-72
2022/03/26 06:38:14;;;;;;;1.50;1.30;;;7.20;98.20;;;;;;5009340;28;20964;-71
2022/03/26 06:40:41;;;;;;;1.70;1.60;;;7.40;98.20;;;;;;5006464;28;20488;-72
2022/03/26 06:43:09;;;;;;;1.50;1.23;;;7.60;98.20;;;;;;5007259;28;20488;-73
2022/03/26 06:45:37;;;;;;;1.50;1.20;;;7.70;98.20;;;;;;5007792;28;20468;-73
2022/03/26 06:48:04;;;;;;;1.50;1.27;;;7.90;98.20;;;;;;5033091;28;20482;-70
2022/03/26 06:50:31;;;;;;;1.47;1.20;;;8.00;98.20;;;;;;5011886;28;20476;-73
2022/03/26 06:52:59;;;;;;;1.50;1.20;;;8.20;98.20;;;;;;5009527;28;20483;-73
2022/03/26 06:55:27;;;;;;;1.50;1.30;;;8.40;98.20;;;;;;5008452;28;20467;-72
2022/03/26 06:57:54;;;;;;;1.50;1.20;;;8.60;96.90;;;;;;5013461;28;20608;-73
2022/03/26 07:00:21;;;;;;;1.50;1.30;;;8.70;97.00;;;;;;5010454;28;20848;-73
2022/03/26 07:02:48;;;;;;;1.50;1.20;;;8.90;96.70;;;;;;5012888;28;20795;-71
2022/03/26 07:05:15;;;;;;;1.50;1.20;;;9.10;95.70;;;;;;5011286;28;20460;-73
2022/03/26 07:07:42;;;;;;;1.50;1.30;;;9.30;96.10;;;;;;5012316;28;20468;-73
2022/03/26 07:10:10;;;;;;;1.50;1.20;;;9.50;95.30;;;;;;5010552;28;20505;-72
2022/03/26 07:12:39;;;;;;;1.50;1.10;;;9.70;94.40;;;;;;5005902;28;20595;-72
2022/03/26 07:15:07;;;;;;;1.50;1.10;;;9.90;94.50;;;;;;5011114;28;20496;-73
2022/03/26 07:17:35;;;;;;;1.50;1.10;;;10.10;93.80;;;;;;5011721;28;20474;-71
2022/03/26 07:20:02;;;;;;;1.50;1.10;;;10.40;93.20;;;;;;5011207;28;21079;-73
2022/03/26 07:22:29;;;;;;;2.13;1.57;;;10.60;92.70;;;;;;5008512;28;20542;-73
2022/03/26 07:24:56;;;;;;;1.60;1.50;;;10.70;91.80;;;;;;5010297;28;20563;-72
2022/03/26 07:27:23;;;;;;;1.50;1.10;;;10.90;91.20;;;;;;5017468;28;20538;-72
2022/03/26 07:29:51;;;;;;;1.50;1.10;;;11.00;91.00;;;;;;5010895;28;20862;-72
2022/03/26 07:32:18;;;;;;;1.50;1.10;;;11.10;91.00;;;;;;5016286;28;20460;-72
2022/03/26 07:34:45;;;;;;;1.50;1.10;;;11.40;90.40;;;;;;5011291;28;20988;-73
2022/03/26 07:37:12;;;;;;;1.90;1.77;;;11.60;90.20;;;;;;5011462;28;20912;-73
2022/03/26 07:39:39;;;;;;;1.50;1.10;;;11.80;89.20;;;;;;5010490;28;20919;-73
2022/03/26 07:42:07;;;;;;;1.50;1.10;;;12.00;88.60;;;;;;5015237;28;20500;-79
2022/03/26 07:44:34;;;;;;;1.50;1.10;;;12.10;87.00;;;;;;5010841;28;20488;-78
2022/03/26 07:47:04;;;;;;;1.50;1.37;;;12.30;87.10;;;;;;5011166;28;20470;-74
2022/03/26 07:49:31;;;;;;;1.50;1.00;;;12.50;86.30;;;;;;5003655;28;20472;-75
2022/03/26 07:51:58;;;;;;;1.50;1.00;;;12.60;85.60;;;;;;5009523;28;21054;-73
2022/03/26 07:54:25;;;;;;;1.50;1.10;;;12.70;85.10;;;;;;5009543;28;20915;-78
2022/03/26 07:56:51;;;;;;;1.50;1.10;;;12.80;84.30;;;;;;5009924;28;20471;-73
2022/03/26 07:59:18;;;;;;;1.47;1.00;;;12.90;83.10;;;;;;5008649;28;20491;-75
2022/03/26 08:01:45;;;;;;;1.50;0.90;;;12.90;82.90;;;;;;5009794;28;20456;-74
2022/03/26 08:04:13;;;;;;;1.50;1.00;;;13.00;82.60;;;;;;5008664;28;20988;-74
2022/03/26 08:06:40;;;;;;;1.50;1.00;;;13.30;82.40;;;;;;5004579;28;20468;-79
2022/03/26 08:09:07;;;;;;;1.47;1.00;;;13.50;82.60;;;;;;5006203;28;21066;-77
2022/03/26 08:11:34;;;;;;;1.50;1.10;;;13.60;82.70;;;;;;5006776;28;20457;-78
2022/03/26 08:14:01;;;;;;;1.50;1.00;;;13.80;80.30;;;;;;5006091;28;21061;-72
2022/03/26 08:16:28;;;;;;;1.50;1.00;;;14.00;79.50;;;;;;5006913;28;20479;-74
2022/03/26 08:18:55;;;;;;;1.50;1.00;;;14.20;79.20;;;;;;5005587;28;20472;-75
2022/03/26 08:21:23;;;;;;;1.60;1.17;;;14.40;79.30;;;;;;5004555;28;20491;-75
2022/03/26 08:23:50;;;;;;;1.50;1.00;;;14.70;79.10;;;;;;5005715;28;20495;-74
2022/03/26 08:26:26;;;;;;;1.50;1.00;;;14.90;78.00;;;;;;5006381;28;20496;-74
2022/03/26 08:28:55;;;;;;;1.50;0.90;;;15.10;77.00;;;;;;5007236;28;20468;-74
2022/03/26 08:31:25;;;;;;;1.50;1.00;;;15.30;76.90;;;;;;5006315;28;20464;-74
2022/03/26 08:33:52;;;;;;;1.63;1.23;;;15.40;75.90;;;;;;5009039;28;20492;-78
2022/03/26 08:36:19;;;;;;;1.50;1.00;;;15.60;77.40;;;;;;5009447;28;20957;-74
2022/03/26 08:38:49;;;;;;;1.50;1.00;;;15.70;77.80;;;;;;5009162;28;20987;-78
2022/03/26 08:41:17;;;;;;;1.50;1.00;;;15.90;77.80;;;;;;5012156;28;21013;-78
2022/03/26 08:43:47;;;;;;;1.47;0.90;;;16.00;77.70;;;;;;5007921;28;20496;-75
2022/03/26 08:46:15;;;;;;;1.50;0.90;;;16.20;77.30;;;;;;5006709;28;20482;-76
2022/03/26 08:48:42;;;;;;;1.50;0.90;;;16.30;77.20;;;;;;5032537;28;20467;-76
2022/03/26 08:51:09;;;;;;;1.47;0.90;;;16.50;77.20;;;;;;5007798;28;20466;-72
2022/03/26 08:53:36;;;;;;;1.40;0.90;;;16.70;76.20;;;;;;5008121;28;20518;-74
2022/03/26 08:56:06;;;;;;;1.47;0.90;;;16.80;75.80;;;;;;5007406;28;20467;-73
2022/03/26 08:58:33;;;;;;;1.43;0.90;;;17.00;75.30;;;;;;5006995;28;20980;-73
2022/03/26 09:01:00;;;;;;;1.50;1.10;;;17.20;75.60;;;;;;5005545;28;20488;-73
2022/03/26 09:03:27;;;;;;;1.43;1.00;;;17.30;75.20;;;;;;5006319;28;20500;-73
2022/03/26 09:05:54;;;;;;;1.60;1.40;;;17.40;74.90;;;;;;5007322;28;20550;-73
2022/03/26 09:08:21;;;;;;;2.23;1.53;;;17.60;74.30;;;;;;5007499;28;20464;-73
2022/03/26 09:10:48;;;;;;;1.50;1.00;;;17.70;73.80;;;;;;5006124;28;20547;-73
2022/03/26 09:13:16;;;;;;;1.47;0.90;;;17.80;73.10;;;;;;5007936;28;20503;-73
2022/03/26 09:15:42;;;;;;;1.47;0.90;;;18.00;72.90;;;;;;5006440;28;20474;-73
2022/03/26 09:18:09;;;;;;;1.50;1.10;;;18.10;71.40;;;;;;5007070;28;20467;-73
2022/03/26 09:20:38;;;;;;;1.50;0.90;;;18.30;72.40;;;;;;5006120;28;21035;-73
2022/03/26 09:23:05;;;;;;;1.43;0.90;;;18.30;70.70;;;;;;5007802;28;20895;-73
2022/03/26 09:25:34;;;;;;;1.90;1.30;;;18.50;70.40;;;;;;5007303;28;20468;-74
2022/03/26 09:28:01;;;;;;;1.50;0.90;;;18.60;70.10;;;;;;5007074;28;20464;-74
2022/03/26 09:30:31;;;;;;;1.50;0.90;;;18.70;70.70;;;;;;5008508;28;20452;-73
2022/03/26 09:32:58;;;;;;;1.50;1.00;;;18.80;68.50;;;;;;5007994;28;20510;-74
2022/03/26 09:35:25;;;;;;;1.47;0.90;;;18.90;68.60;;;;;;5006997;28;20472;-74
2022/03/26 09:37:52;;;;;;;1.50;0.90;;;19.10;69.60;;;;;;5008330;28;20475;-74
2022/03/26 09:40:21;;;;;;;1.50;1.00;;;19.20;68.90;;;;;;5004419;28;20495;-72
2022/03/26 09:42:50;;;;;;;1.50;1.20;;;19.40;69.90;;;;;;5007190;28;20996;-72
2022/03/26 09:45:17;;;;;;;1.50;0.90;;;19.50;68.10;;;;;;5009176;28;20576;-72
2022/03/26 09:47:45;;;;;;;1.43;0.90;;;19.70;67.80;;;;;;5008634;28;20476;-71
2022/03/26 09:50:13;;;;;;;1.50;0.90;;;19.80;68.50;;;;;;5006906;28;20456;-72
2022/03/26 09:52:40;;;;;;;3.93;3.63;;;20.00;68.40;;;;;;5008712;28;20486;-72
2022/03/26 09:55:11;;;;;;;1.47;0.90;;;20.10;67.60;;;;;;5006131;28;20945;-72
2022/03/26 09:57:39;;;;;;;1.50;1.00;;;20.30;67.00;;;;;;5008218;28;20466;-72
2022/03/26 10:00:09;;;;;;;1.50;1.10;;;20.40;67.00;;;;;;5006689;28;20499;-72
2022/03/26 10:02:36;;;;;;;1.50;1.10;;;20.60;67.30;;;;;;5007439;28;20561;-73
2022/03/26 10:05:08;;;;;;;1.50;0.90;;;20.80;67.50;;;;;;5007097;28;20467;-73
2022/03/26 10:07:34;;;;;;;1.50;1.00;;;20.90;65.70;;;;;;5008162;28;20547;-72
2022/03/26 10:10:03;;;;;;;1.50;0.90;;;21.10;66.30;;;;;;5006520;28;20464;-72
2022/03/26 10:12:30;;;;;;;1.43;0.90;;;21.20;65.30;;;;;;5005366;28;20471;-74
2022/03/26 10:14:58;;;;;;;1.50;0.90;;;21.30;65.40;;;;;;5007212;28;20468;-74
2022/03/26 10:17:27;;;;;;;1.50;0.90;;;21.30;65.30;;;;;;5007450;28;20940;-73
2022/03/26 10:19:56;;;;;;;2.30;2.10;;;21.30;65.20;;;;;;5003186;28;20476;-73
2022/03/26 10:22:33;;;;;;;2.43;1.50;;;21.50;65.00;;;;;;5005277;28;20492;-74
2022/03/26 10:25:05;;;;;;;1.50;0.90;;;21.70;64.00;;;;;;5004313;28;20462;-73
2022/03/26 10:27:40;;;;;;;1.47;0.80;;;21.80;64.80;;;;;;5007583;28;20534;-74
2022/03/26 10:30:08;;;;;;;1.43;0.90;;;21.90;63.30;;;;;;5007677;28;20474;-74
2022/03/26 10:32:45;;;;;;;1.50;0.90;;;22.10;63.70;;;;;;5028316;28;21001;-74
2022/03/26 10:35:22;;;;;;;1.60;1.23;;;22.20;62.00;;;;;;5011260;28;20490;-75
2022/03/26 10:37:55;;;;;;;1.50;0.80;;;22.40;62.30;;;;;;5010132;28;20464;-75
2022/03/26 10:40:25;;;;;;;1.87;1.53;;;22.40;61.50;;;;;;5006964;28;20515;-75
2022/03/26 10:43:06;;;;;;;1.50;0.90;;;22.40;60.40;;;;;;5010951;28;20505;-74
2022/03/26 10:45:36;;;;;;;1.50;1.20;;;22.50;61.40;;;;;;5010509;28;20464;-74
2022/03/26 10:48:08;;;;;;;1.67;1.10;;;22.40;61.10;;;;;;5011960;28;20468;-75
2022/03/26 10:50:36;;;;;;;1.47;0.90;;;22.60;62.10;;;;;;5011014;28;20522;-73
2022/03/26 10:53:10;;;;;;;1.97;1.57;;;22.60;60.10;;;;;;5008434;28;20491;-73
2022/03/26 10:55:39;;;;;;;1.43;0.90;;;22.50;60.60;;;;;;5008447;28;20471;-74
2022/03/26 10:58:06;;;;;;;1.50;1.00;;;22.50;60.80;;;;;;5010729;28;21201;-74
2022/03/26 11:00:33;;;;;;;1.47;0.90;;;22.50;61.00;;;;;;5008384;28;20563;-74
2022/03/26 11:03:00;;;;;;;2.17;1.97;;;22.50;61.00;;;;;;5010321;28;20480;-75
2022/03/26 11:05:29;;;;;;;1.50;0.90;;;22.40;59.80;;;;;;5008761;28;20464;-77
2022/03/26 11:07:57;;;;;;;1.47;0.80;;;22.40;60.20;;;;;;5010860;28;20468;-76
2022/03/26 11:10:25;;;;;;;1.50;0.90;;;22.50;59.50;;;;;;5008256;28;20971;-76
2022/03/26 11:12:53;;;;;;;1.47;0.90;;;22.50;59.00;;;;;;5009013;28;20566;-76
2022/03/26 11:15:26;;;;;;;1.50;0.90;;;22.50;59.60;;;;;;5008492;28;20460;-76
2022/03/26 11:18:09;;;;;;;1.63;1.33;;;22.60;58.90;;;;;;5009317;28;20751;-77
2022/03/26 11:21:10;;;;;;;1.50;0.90;;;22.60;58.70;;;;;;5009584;28;20460;-75
2022/03/26 11:23:55;;;;;;;1.50;1.00;;;22.60;60.40;;;;;;5012030;28;20853;-76
2022/03/26 11:26:36;;;;;;;1.43;0.90;;;22.60;59.30;;;;;;5012112;28;20462;-75
2022/03/26 11:29:28;;;;;;;1.40;0.80;;;22.80;59.70;;;;;;5008285;28;20479;-76
2022/03/26 11:32:03;;;;;;;1.50;1.00;;;22.80;59.90;;;;;;5009245;28;20643;-74
2022/03/26 11:34:36;;;;;;;1.43;0.90;;;22.80;58.70;;;;;;5012164;28;20570;-76
2022/03/26 11:37:10;;;;;;;1.73;1.20;;;22.80;59.20;;;;;;5009761;28;20467;-75
2022/03/26 11:39:44;;;;;;;1.57;1.30;;;22.70;57.90;;;;;;5009538;28;20464;-75
2022/03/26 11:42:13;;;;;;;1.40;0.90;;;22.60;59.00;;;;;;5009598;28;20682;-74
2022/03/26 11:50:40;;;;;;;1.50;1.00;;;22.60;58.60;;;;;;5012809;28;20527;-74
2022/03/26 11:53:12;;;;;;;3.83;3.47;;;22.90;57.70;;;;;;5009722;28;20464;-74
2022/03/26 11:55:44;;;;;;;1.43;0.90;;;22.50;57.50;;;;;;5007975;28;20517;-74
2022/03/26 11:58:20;;;;;;;1.60;1.40;;;22.40;57.60;;;;;;5009956;28;20467;-75
2022/03/26 12:00:58;;;;;;;1.50;1.00;;;22.30;58.20;;;;;;5007797;28;21002;-74
2022/03/26 12:03:26;;;;;;;1.77;1.30;;;22.20;58.60;;;;;;5008981;28;20590;-74
2022/03/26 12:08:53;;;;;;;1.50;0.90;;;22.10;57.80;;;;;;5009307;28;20482;-74
2022/03/26 12:11:23;;;;;;;1.47;0.90;;;21.90;57.30;;;;;;5010328;28;20451;-74
2022/03/26 12:14:03;;;;;;;1.47;0.87;;;22.10;58.40;;;;;;5009043;28;20488;-74
2022/03/26 12:16:55;;;;;;;1.47;0.90;;;22.20;58.10;;;;;;5009231;28;20470;-74
2022/03/26 12:19:42;;;;;;;1.50;0.90;;;22.20;57.10;;;;;;5007640;28;20510;-74
2022/03/26 12:22:19;;;;;;;1.50;0.90;;;22.10;57.10;;;;;;5008188;28;20571;-75
2022/03/26 12:24:46;;;;;;;1.40;0.90;;;22.10;58.20;;;;;;5008844;28;20475;-74
2022/03/26 12:27:13;;;;;;;1.47;1.00;;;22.20;57.90;;;;;;5004695;28;20912;-75
2022/03/26 12:29:42;;;;;;;1.43;0.90;;;22.20;57.60;;;;;;5002335;28;20471;-75
2022/03/26 12:32:09;;;;;;;1.50;0.90;;;22.10;58.40;;;;;;5004229;28;20479;-75
2022/03/26 12:34:53;;;;;;;1.60;1.20;;;22.10;58.30;;;;;;5003986;28;20491;-75
2022/03/26 12:37:20;;;;;;;1.47;0.90;;;22.00;58.60;;;;;;5006764;28;20514;-74
2022/03/26 12:39:47;;;;;;;5.67;1.43;;;21.90;58.90;;;;;;5004885;28;20470;-73
2022/03/26 12:42:14;;;;;;;1.47;0.90;;;22.00;58.50;;;;;;5003071;28;20492;-74
2022/03/26 12:44:42;;;;;;;1.50;0.90;;;21.90;58.50;;;;;;5002672;28;20475;-74
2022/03/26 12:47:09;;;;;;;2.00;1.43;;;22.10;59.60;;;;;;5007299;28;20540;-74
2022/03/26 12:49:38;;;;;;;1.47;0.90;;;22.20;58.70;;;;;;5005422;28;20467;-74
2022/03/26 12:52:05;;;;;;;1.47;0.90;;;22.30;59.00;;;;;;5007153;28;20452;-74
2022/03/26 12:54:32;;;;;;;1.63;1.33;;;22.10;58.70;;;;;;5004898;28;20480;-74
2022/03/26 12:57:02;;;;;;;1.50;1.00;;;22.10;59.70;;;;;;5013152;28;20850;-74
2022/03/26 12:59:28;;;;;;;1.43;0.80;;;22.20;59.40;;;;;;5017161;28;20468;-74
2022/03/26 13:01:59;;;;;;;1.43;0.83;;;22.20;58.70;;;;;;5003882;28;20484;-75
2022/03/26 13:04:26;;;;;;;1.50;0.90;;;22.20;59.00;;;;;;5006447;28;20238;-75
2022/03/26 13:06:57;;;;;;;1.43;0.90;;;22.20;59.70;;;;;;5005895;28;21146;-76
2022/03/26 13:09:29;;;;;;;1.43;0.90;;;22.40;58.80;;;;;;5035621;22;20496;-77